createdAt,value
2019-05-23T00:02:33.567Z,2.97
2019-05-23T00:05:30.019Z,2.83
2019-05-23T00:08:21.023Z,3.07
2019-05-23T00:10:55.569Z,2.60
2019-05-23T00:13:49.007Z,2.70
2019-05-23T00:16:21.353Z,2.63
2019-05-23T00:18:51.861Z,2.80
2019-05-23T00:21:21.916Z,2.50
2019-05-23T00:23:51.642Z,2.73
2019-05-23T00:26:22.686Z,2.60
2019-05-23T00:29:08.980Z,2.20
2019-05-23T00:31:44.945Z,2.70
2019-05-23T00:34:15.272Z,2.30
2019-05-23T00:36:44.980Z,2.40
2019-05-23T00:39:15.911Z,2.10
2019-05-23T00:41:45.359Z,2.17
2019-05-23T00:44:15.775Z,2.50
2019-05-23T00:46:45.008Z,2.13
2019-05-23T00:49:16.083Z,2.40
2019-05-23T00:51:46.361Z,2.30
2019-05-23T00:54:15.782Z,2.20
2019-05-23T00:56:45.530Z,2.10
2019-05-23T00:59:26.668Z,2.00
2019-05-23T01:01:48.710Z,2.00
2019-05-23T01:04:19.067Z,1.97
2019-05-23T01:06:49.726Z,2.10
2019-05-23T01:09:19.299Z,2.40
2019-05-23T01:11:49.722Z,2.17
2019-05-23T01:14:20.308Z,2.23
2019-05-23T01:16:51.039Z,2.30
2019-05-23T01:19:21.163Z,2.63
2019-05-23T01:21:59.097Z,2.20
2019-05-23T01:24:34.344Z,2.60
2019-05-23T01:27:05.997Z,2.40
2019-05-23T01:29:49.705Z,2.70
2019-05-23T01:32:31.493Z,2.40
2019-05-23T01:35:03.784Z,2.60
2019-05-23T01:37:34.653Z,2.13
2019-05-23T01:40:07.011Z,2.83
2019-05-23T01:42:37.250Z,2.50
2019-05-23T01:45:08.801Z,2.40
2019-05-23T01:47:38.575Z,2.90
2019-05-23T01:50:10.363Z,2.80
2019-05-23T01:52:41.846Z,2.53
2019-05-23T01:55:11.252Z,2.90
2019-05-23T01:57:40.407Z,2.90
2019-05-23T02:00:12.137Z,2.80
2019-05-23T02:02:42.239Z,3.00
2019-05-23T02:05:13.904Z,3.30
2019-05-23T02:07:43.824Z,3.80
2019-05-23T02:10:13.689Z,3.37
2019-05-23T02:12:43.864Z,3.47
2019-05-23T02:15:13.984Z,3.87
2019-05-23T02:17:43.624Z,3.17
2019-05-23T02:20:17.023Z,3.40
2019-05-23T02:22:46.838Z,3.57
2019-05-23T02:25:17.462Z,3.40
2019-05-23T02:27:48.351Z,3.20
2019-05-23T02:30:34.281Z,3.57
2019-05-23T02:32:51.512Z,3.17
2019-05-23T02:35:21.217Z,3.50
2019-05-23T02:38:08.624Z,3.40
2019-05-23T02:40:49.304Z,3.60
2019-05-23T02:43:24.563Z,3.40
2019-05-23T02:45:58.906Z,3.43
2019-05-23T02:48:33.576Z,3.67
2019-05-23T02:51:07.283Z,17.40
2019-05-23T02:53:39.570Z,14.53
2019-05-23T02:56:11.543Z,7.60
2019-05-23T02:58:49.104Z,4.47
2019-05-23T03:01:52.430Z,3.90
2019-05-23T03:04:24.896Z,3.70
2019-05-23T03:06:56.257Z,3.87
2019-05-23T03:09:27.488Z,3.83
2019-05-23T03:11:58.838Z,3.57
2019-05-23T03:14:29.978Z,4.07
2019-05-23T03:16:59.633Z,3.60
2019-05-23T03:19:36.930Z,3.90
2019-05-23T03:22:25.729Z,25.13
2019-05-23T03:24:58.888Z,8.80
2019-05-23T03:27:30.326Z,5.43
2019-05-23T03:30:00.522Z,4.03
2019-05-23T03:32:48.377Z,3.90
2019-05-23T03:35:36.351Z,5.00
2019-05-23T03:38:06.232Z,3.53
2019-05-23T03:40:36.309Z,3.30
2019-05-23T03:43:08.380Z,3.30
2019-05-23T03:45:40.500Z,3.10
2019-05-23T03:48:11.651Z,2.97
2019-05-23T03:50:43.355Z,2.77
2019-05-23T03:53:12.812Z,2.30
2019-05-23T03:55:42.517Z,2.23
2019-05-23T03:58:12.758Z,1.83
2019-05-23T04:00:48.289Z,1.80
2019-05-23T04:03:18.995Z,1.60
2019-05-23T04:05:49.258Z,1.53
2019-05-23T04:08:18.840Z,1.70
2019-05-23T04:10:51.655Z,1.50
2019-05-23T04:13:19.900Z,1.50
2019-05-23T04:15:49.220Z,1.40
2019-05-23T04:18:19.104Z,1.43
2019-05-23T04:20:49.427Z,1.57
2019-05-23T04:23:19.859Z,1.60
2019-05-23T04:25:50.536Z,1.30
2019-05-23T04:28:20.545Z,1.80
2019-05-23T04:30:50.214Z,1.60
2019-05-23T04:33:20.276Z,1.50
2019-05-23T04:35:49.543Z,1.70
2019-05-23T04:38:19.413Z,1.35
2019-05-23T04:40:48.731Z,1.40
2019-05-23T04:43:19.168Z,1.30
2019-05-23T04:45:49.977Z,1.50
2019-05-23T04:48:20.649Z,1.30
2019-05-23T04:50:50.115Z,1.15
2019-05-23T04:53:20.027Z,1.40
2019-05-23T04:55:50.445Z,1.30
2019-05-23T04:58:20.251Z,1.52
2019-05-23T05:00:50.037Z,1.42
2019-05-23T05:03:20.961Z,1.17
2019-05-23T05:05:50.619Z,1.50
2019-05-23T05:08:21.980Z,1.55
2019-05-23T05:10:51.820Z,1.25
2019-05-23T05:13:22.610Z,1.47
2019-05-23T05:15:52.114Z,1.40
2019-05-23T05:18:22.111Z,1.50
2019-05-23T05:20:51.527Z,1.52
2019-05-23T05:23:21.273Z,1.42
2019-05-23T05:25:53.360Z,1.50
2019-05-23T05:28:23.167Z,1.52
2019-05-23T05:30:52.655Z,1.37
2019-05-23T05:33:22.392Z,1.50
2019-05-23T05:35:51.745Z,1.80
2019-05-23T05:38:20.902Z,1.40
2019-05-23T05:40:50.766Z,1.85
2019-05-23T05:43:21.234Z,1.50
2019-05-23T05:45:50.556Z,1.80
2019-05-23T05:48:20.130Z,1.60
2019-05-23T05:50:49.954Z,2.77
2019-05-23T05:53:19.858Z,1.77
2019-05-23T05:55:49.962Z,2.52
2019-05-23T05:58:19.791Z,2.92
2019-05-23T06:00:59.836Z,2.02
2019-05-23T06:03:30.013Z,2.08
2019-05-23T06:06:18.331Z,2.47
2019-05-23T06:08:50.834Z,1.70
2019-05-23T06:11:20.785Z,1.30
2019-05-23T06:13:50.532Z,1.20
2019-05-23T06:16:20.575Z,1.10
2019-05-23T06:18:49.905Z,1.62
2019-05-23T06:21:25.948Z,1.77
2019-05-23T06:23:55.868Z,1.37
2019-05-23T06:26:25.249Z,2.50
2019-05-23T06:28:54.469Z,2.00
2019-05-23T06:31:25.197Z,2.62
2019-05-23T06:33:55.465Z,2.70
2019-05-23T06:36:24.825Z,1.60
2019-05-23T06:38:55.969Z,1.10
2019-05-23T06:41:26.784Z,1.20
2019-05-23T06:43:56.009Z,1.10
2019-05-23T06:46:25.510Z,1.40
2019-05-23T06:48:55.205Z,1.00
2019-05-23T06:51:25.906Z,1.22
2019-05-23T06:53:55.355Z,1.20
2019-05-23T06:56:24.640Z,1.20
2019-05-23T06:58:54.324Z,1.37
2019-05-23T07:01:24.211Z,1.40
2019-05-23T07:03:54.257Z,1.10
2019-05-23T07:06:25.091Z,1.20
2019-05-23T07:08:55.133Z,1.10
2019-05-23T07:11:24.499Z,1.37
2019-05-23T07:13:54.366Z,1.47
2019-05-23T07:16:23.612Z,1.50
2019-05-23T07:18:52.765Z,3.00
2019-05-23T07:21:22.439Z,2.57
2019-05-23T07:23:53.188Z,2.20
2019-05-23T07:26:22.946Z,1.70
2019-05-23T07:28:53.134Z,2.00
2019-05-23T07:31:23.073Z,1.73
2019-05-23T07:34:01.714Z,1.90
2019-05-23T07:36:24.348Z,1.60
2019-05-23T07:38:53.572Z,1.80
2019-05-23T07:41:23.621Z,1.67
2019-05-23T07:43:52.988Z,1.70
2019-05-23T07:46:22.394Z,1.57
2019-05-23T07:48:51.994Z,1.40
2019-05-23T07:51:22.173Z,2.00
2019-05-23T07:54:08.805Z,1.53
2019-05-23T07:56:38.934Z,1.40
2019-05-23T07:59:10.407Z,1.40
2019-05-23T08:01:42.248Z,1.50
2019-05-23T08:04:20.953Z,1.10
2019-05-23T08:06:42.509Z,2.07
2019-05-23T08:09:13.276Z,1.83
2019-05-23T08:11:42.734Z,1.40
2019-05-23T08:14:12.352Z,1.50
2019-05-23T08:16:42.490Z,1.60
2019-05-23T08:19:11.808Z,1.80
2019-05-23T08:21:41.447Z,1.80
2019-05-23T08:24:12.436Z,1.30
2019-05-23T08:26:45.234Z,1.47
2019-05-23T08:29:29.735Z,1.60
2019-05-23T08:31:45.527Z,1.30
2019-05-23T08:34:15.805Z,1.43
2019-05-23T08:36:45.748Z,2.80
2019-05-23T08:39:15.954Z,1.70
2019-05-23T08:41:45.746Z,3.40
2019-05-23T08:44:15.318Z,2.03
2019-05-23T08:46:45.099Z,1.70
2019-05-23T08:49:14.668Z,1.60
2019-05-23T08:51:44.528Z,2.00
2019-05-23T08:54:14.283Z,1.60
2019-05-23T08:56:43.559Z,1.50
2019-05-23T08:59:14.498Z,1.70
2019-05-23T09:01:43.972Z,1.73
2019-05-23T09:04:13.744Z,1.50
2019-05-23T09:06:43.269Z,2.03
2019-05-23T09:09:28.478Z,1.80
2019-05-23T09:11:45.410Z,2.00
2019-05-23T09:14:14.911Z,1.90
2019-05-23T09:16:44.120Z,2.20
2019-05-23T09:19:13.993Z,2.30
2019-05-23T09:21:43.811Z,2.50
2019-05-23T09:24:13.579Z,2.87
2019-05-23T09:26:43.455Z,2.60
2019-05-23T09:29:13.525Z,3.80
2019-05-23T09:31:43.542Z,3.70
2019-05-23T09:34:13.365Z,6.50
2019-05-23T09:36:42.777Z,4.20
2019-05-23T09:39:15.163Z,3.53
2019-05-23T09:41:45.035Z,3.20
2019-05-23T09:44:14.233Z,3.90
2019-05-23T09:46:43.556Z,3.23
2019-05-23T09:49:12.834Z,3.00
2019-05-23T09:51:42.460Z,2.90
2019-05-23T09:54:12.933Z,3.30
2019-05-23T09:56:43.022Z,3.10
2019-05-23T09:59:12.305Z,3.70
2019-05-23T10:01:41.515Z,3.50
2019-05-23T10:04:11.792Z,3.60
2019-05-23T10:06:41.294Z,4.17
2019-05-23T10:09:10.469Z,4.40
2019-05-23T10:11:39.639Z,5.87
2019-05-23T10:14:12.363Z,5.20
2019-05-23T10:16:42.339Z,4.43
2019-05-23T10:19:11.976Z,3.83
2019-05-23T10:21:41.692Z,4.20
2019-05-23T10:24:11.167Z,4.20
2019-05-23T10:26:40.800Z,4.30
2019-05-23T10:29:10.547Z,4.20
2019-05-23T10:31:39.928Z,3.80
2019-05-23T10:34:09.757Z,5.00
2019-05-23T10:36:39.472Z,3.00
2019-05-23T10:39:12.822Z,3.60
2019-05-23T10:41:42.207Z,2.80
2019-05-23T10:44:12.234Z,3.03
2019-05-23T10:46:44.565Z,2.30
2019-05-23T10:49:14.634Z,2.70
2019-05-23T10:51:44.318Z,2.90
2019-05-23T10:54:14.063Z,2.83
2019-05-23T10:56:43.607Z,3.40
2019-05-23T10:59:13.499Z,3.27
2019-05-23T11:01:47.199Z,2.67
2019-05-23T11:04:16.995Z,2.30
2019-05-23T11:06:46.707Z,2.03
2019-05-23T11:09:16.541Z,2.10
2019-05-23T11:11:46.296Z,2.27
2019-05-23T11:14:15.701Z,2.37
2019-05-23T11:16:45.058Z,1.97
2019-05-23T11:19:14.881Z,2.10
2019-05-23T11:21:44.641Z,2.30
2019-05-23T11:24:14.143Z,2.20
2019-05-23T11:26:44.893Z,2.20
2019-05-23T11:29:14.200Z,2.60
2019-05-23T11:31:43.943Z,2.20
2019-05-23T11:34:13.665Z,2.10
2019-05-23T11:36:42.970Z,2.27
2019-05-23T11:39:13.999Z,1.97
2019-05-23T11:41:43.398Z,1.83
2019-05-23T11:44:12.664Z,1.70
2019-05-23T11:46:41.905Z,1.50
2019-05-23T11:49:12.062Z,1.60
2019-05-23T11:51:41.799Z,1.60
2019-05-23T11:54:11.644Z,1.70
2019-05-23T11:56:42.328Z,1.57
2019-05-23T11:59:11.792Z,1.70
2019-05-23T12:01:59.484Z,1.80
2019-05-23T12:04:35.877Z,1.60
2019-05-23T12:07:21.249Z,1.40
2019-05-23T12:09:50.395Z,1.60
2019-05-23T12:12:21.038Z,1.90
2019-05-23T12:14:50.827Z,1.40
2019-05-23T12:17:21.272Z,1.30
2019-05-23T12:19:50.521Z,1.50
2019-05-23T12:22:19.984Z,1.20
2019-05-23T12:24:49.189Z,1.27
2019-05-23T12:27:18.597Z,1.47
2019-05-23T12:29:48.318Z,2.40
2019-05-23T12:32:18.400Z,1.70
2019-05-23T12:35:08.651Z,1.50
2019-05-23T12:37:20.766Z,2.27
2019-05-23T12:39:51.081Z,1.60
2019-05-23T12:42:20.841Z,1.47
2019-05-23T12:44:50.123Z,1.57
2019-05-23T12:47:37.835Z,1.60
2019-05-23T12:50:11.409Z,1.53
2019-05-23T12:52:40.667Z,1.70
2019-05-23T12:55:09.841Z,1.73
2019-05-23T12:57:39.814Z,1.60
2019-05-23T13:00:15.587Z,1.30
2019-05-23T13:02:45.279Z,4.40
2019-05-23T13:05:15.200Z,2.30
2019-05-23T13:07:44.520Z,1.80
2019-05-23T13:10:15.492Z,1.60
2019-05-23T13:12:44.796Z,1.50
2019-05-23T13:15:14.421Z,1.60
2019-05-23T13:17:44.146Z,1.30
2019-05-23T13:20:13.933Z,1.50
2019-05-23T13:22:43.461Z,1.60
2019-05-23T13:25:13.494Z,3.10
2019-05-23T13:27:42.959Z,7.43
2019-05-23T13:30:13.065Z,2.60
2019-05-23T13:32:42.351Z,2.60
2019-05-23T13:35:11.589Z,2.60
2019-05-23T13:37:52.935Z,3.00
2019-05-23T13:40:12.381Z,3.93
2019-05-23T13:42:41.703Z,3.03
2019-05-23T13:45:11.050Z,3.90
2019-05-23T13:47:40.327Z,3.90
2019-05-23T13:50:10.433Z,4.43
2019-05-23T13:52:40.598Z,4.90
2019-05-23T13:55:10.723Z,2.90
2019-05-23T13:57:40.512Z,2.73
2019-05-23T14:00:10.711Z,2.43
2019-05-23T14:02:40.061Z,2.47
2019-05-23T14:05:09.470Z,2.70
2019-05-23T14:07:39.430Z,3.00
2019-05-23T14:10:09.118Z,6.60
2019-05-23T14:12:38.278Z,3.60
2019-05-23T14:15:11.177Z,2.60
2019-05-23T14:17:43.007Z,3.63
2019-05-23T14:20:14.728Z,3.30
2019-05-23T14:22:58.951Z,3.13
2019-05-23T14:25:28.750Z,18.43
2019-05-23T14:28:03.512Z,14.50
2019-05-23T14:30:51.214Z,6.97
2019-05-23T14:33:40.160Z,4.80
2019-05-23T14:36:17.006Z,4.80
2019-05-23T14:38:47.016Z,2.90
2019-05-23T14:41:16.735Z,2.60
2019-05-23T14:43:47.920Z,2.20
2019-05-23T14:46:18.064Z,2.93
2019-05-23T14:48:58.208Z,3.47
2019-05-23T14:51:47.791Z,2.80
2019-05-23T14:54:20.511Z,2.83
2019-05-23T14:56:50.745Z,3.33
2019-05-23T14:59:20.579Z,3.23
2019-05-23T15:01:51.275Z,2.90
2019-05-23T15:04:21.089Z,3.20
2019-05-23T15:06:50.294Z,2.30
2019-05-23T15:09:21.424Z,2.80
2019-05-23T15:11:51.697Z,3.00
2019-05-23T15:14:21.049Z,3.57
2019-05-23T15:16:52.383Z,4.83
2019-05-23T15:19:39.888Z,4.90
2019-05-23T15:21:53.068Z,4.20
2019-05-23T15:24:22.569Z,4.83
2019-05-23T15:26:52.248Z,3.80
2019-05-23T15:29:22.000Z,3.13
2019-05-23T15:32:01.681Z,2.20
2019-05-23T15:34:22.788Z,2.30
2019-05-23T15:36:52.322Z,5.13
2019-05-23T15:39:22.926Z,9.90
2019-05-23T15:41:52.761Z,6.43
2019-05-23T15:44:27.865Z,2.90
2019-05-23T15:46:54.203Z,2.20
2019-05-23T15:49:24.068Z,1.93
2019-05-23T15:52:01.096Z,1.90
2019-05-23T15:54:40.081Z,4.20
2019-05-23T15:57:15.842Z,4.17
2019-05-23T15:59:49.247Z,4.23
2019-05-23T16:02:25.244Z,4.90
2019-05-23T16:04:58.768Z,5.00
2019-05-23T16:07:30.416Z,3.73
2019-05-23T16:10:01.212Z,2.87
2019-05-23T16:12:30.987Z,3.40
2019-05-23T16:15:00.312Z,4.50
2019-05-23T16:17:30.013Z,3.50
2019-05-23T16:19:59.402Z,3.60
2019-05-23T16:22:28.754Z,3.03
2019-05-23T16:24:57.991Z,3.83
2019-05-23T16:27:28.291Z,2.20
2019-05-23T16:29:58.281Z,2.37
2019-05-23T16:32:27.590Z,4.30
2019-05-23T16:34:57.917Z,3.80
2019-05-23T16:37:27.897Z,6.17
2019-05-23T16:39:57.322Z,4.73
2019-05-23T16:42:26.831Z,9.00
2019-05-23T16:44:56.264Z,5.90
2019-05-23T16:47:26.564Z,6.70
2019-05-23T16:49:56.796Z,24.27
2019-05-23T16:52:26.465Z,15.80
2019-05-23T16:54:57.087Z,10.30
2019-05-23T16:57:46.586Z,5.90
2019-05-23T17:00:42.325Z,5.50
2019-05-23T17:03:29.983Z,5.20
2019-05-23T17:06:11.597Z,4.97
2019-05-23T17:09:04.980Z,3.70
2019-05-23T17:11:50.921Z,4.20
2019-05-23T17:14:31.498Z,3.10
2019-05-23T17:17:38.237Z,4.10
2019-05-23T17:20:19.633Z,4.50
2019-05-23T17:23:07.430Z,3.63
2019-05-23T17:25:54.322Z,4.03
2019-05-23T17:28:34.582Z,3.43
2019-05-23T17:31:06.208Z,3.33
2019-05-23T17:33:37.112Z,2.63
2019-05-23T17:36:06.564Z,2.73
2019-05-23T17:38:36.015Z,2.50
2019-05-23T17:41:06.041Z,3.30
2019-05-23T17:43:35.886Z,5.97
2019-05-23T17:46:05.159Z,5.83
2019-05-23T17:48:34.401Z,6.63
2019-05-23T17:51:04.003Z,7.20
2019-05-23T17:53:33.678Z,4.73
2019-05-23T17:56:04.195Z,5.93
2019-05-23T17:58:34.847Z,4.20
2019-05-23T18:01:04.904Z,2.97
2019-05-23T18:03:34.156Z,2.50
2019-05-23T18:06:03.710Z,2.70
2019-05-23T18:08:33.553Z,2.60
2019-05-23T18:11:03.234Z,2.90
2019-05-23T18:13:32.869Z,2.70
2019-05-23T18:16:02.305Z,3.03
2019-05-23T18:18:32.061Z,2.60
2019-05-23T18:21:02.738Z,2.50
2019-05-23T18:23:32.730Z,2.60
2019-05-23T18:26:02.219Z,2.43
2019-05-23T18:28:32.469Z,2.40
2019-05-23T18:31:10.390Z,2.70
2019-05-23T18:33:39.294Z,2.57
2019-05-23T18:36:08.832Z,2.50
2019-05-23T18:38:39.438Z,2.60
2019-05-23T18:41:13.813Z,2.70
2019-05-23T18:43:45.184Z,6.43
2019-05-23T18:46:23.087Z,4.50
2019-05-23T18:48:53.802Z,7.87
2019-05-23T18:51:30.715Z,3.03
2019-05-23T18:53:59.881Z,3.07
2019-05-23T18:56:31.070Z,3.17
2019-05-23T18:59:02.635Z,3.20
2019-05-23T19:01:32.600Z,3.70
2019-05-23T19:04:01.901Z,3.20
2019-05-23T19:06:31.173Z,3.10
2019-05-23T19:09:00.456Z,3.37
2019-05-23T19:11:30.287Z,3.50
2019-05-23T19:14:00.302Z,3.13
2019-05-23T19:16:30.285Z,3.03
2019-05-23T19:19:00.252Z,2.87
2019-05-23T19:21:29.952Z,4.40
2019-05-23T19:23:59.985Z,4.90
2019-05-23T19:26:31.578Z,3.97
2019-05-23T19:29:01.809Z,3.43
2019-05-23T19:31:31.499Z,4.20
2019-05-23T19:34:00.754Z,4.90
2019-05-23T19:36:31.070Z,4.23
2019-05-23T19:39:00.303Z,4.10
2019-05-23T19:41:37.686Z,5.20
2019-05-23T19:44:02.476Z,5.30
2019-05-23T19:46:34.847Z,4.13
2019-05-23T19:49:04.457Z,4.50
2019-05-23T19:51:33.671Z,4.70
2019-05-23T19:54:03.368Z,3.83
2019-05-23T19:56:32.688Z,3.83
2019-05-23T19:59:01.886Z,4.20
2019-05-23T20:01:36.982Z,6.43
2019-05-23T20:04:07.598Z,4.90
2019-05-23T20:06:37.262Z,4.37
2019-05-23T20:09:09.678Z,4.00
2019-05-23T20:11:53.337Z,3.70
2019-05-23T20:14:10.813Z,4.10
2019-05-23T20:16:40.248Z,4.57
2019-05-23T20:19:09.603Z,4.73
2019-05-23T20:21:39.666Z,4.20
2019-05-23T20:24:09.595Z,4.00
2019-05-23T20:26:40.633Z,3.33
2019-05-23T20:29:11.483Z,3.47
2019-05-23T20:31:40.727Z,3.70
2019-05-23T20:34:10.057Z,3.97
2019-05-23T20:36:39.343Z,3.37
2019-05-23T20:39:08.999Z,3.83
2019-05-23T20:41:38.711Z,4.17
2019-05-23T20:44:08.153Z,3.87
2019-05-23T20:46:37.630Z,3.93
2019-05-23T20:49:07.005Z,3.47
2019-05-23T20:51:37.320Z,3.10
2019-05-23T20:54:07.195Z,3.40
2019-05-23T20:56:36.963Z,3.03
2019-05-23T20:59:06.771Z,3.10
2019-05-23T21:01:40.321Z,3.30
2019-05-23T21:04:10.176Z,3.23
2019-05-23T21:06:39.665Z,3.03
2019-05-23T21:09:08.806Z,3.60
2019-05-23T21:11:38.487Z,3.53
2019-05-23T21:14:08.405Z,3.47
2019-05-23T21:16:37.797Z,3.90
2019-05-23T21:19:07.042Z,3.67
2019-05-23T21:21:37.085Z,3.20
2019-05-23T21:24:07.007Z,3.40
2019-05-23T21:26:36.426Z,3.50
2019-05-23T21:29:05.687Z,3.90
2019-05-23T21:31:35.486Z,3.57
2019-05-23T21:34:05.000Z,3.60
2019-05-23T21:36:34.322Z,4.07
2019-05-23T21:39:05.613Z,3.70
2019-05-23T21:41:34.912Z,3.90
2019-05-23T21:44:04.127Z,4.10
2019-05-23T21:46:33.821Z,3.90
2019-05-23T21:49:03.299Z,4.00
2019-05-23T21:51:32.895Z,3.87
2019-05-23T21:54:02.287Z,3.87
2019-05-23T21:56:31.601Z,4.13
2019-05-23T21:59:00.753Z,4.07
2019-05-23T22:01:47.594Z,3.97
2019-05-23T22:04:25.640Z,3.70
2019-05-23T22:06:57.415Z,3.97
2019-05-23T22:09:27.545Z,4.30
2019-05-23T22:11:57.085Z,4.03
2019-05-23T22:14:26.809Z,4.23
2019-05-23T22:16:56.347Z,4.20
2019-05-23T22:19:28.281Z,4.50
2019-05-23T22:21:58.186Z,4.33
2019-05-23T22:24:27.660Z,4.40
2019-05-23T22:26:57.574Z,4.30
2019-05-23T22:29:26.810Z,4.30
2019-05-23T22:31:56.696Z,4.33
2019-05-23T22:34:49.638Z,4.50
2019-05-23T22:37:27.579Z,4.80
2019-05-23T22:39:56.994Z,4.60
2019-05-23T22:42:29.151Z,4.57
2019-05-23T22:44:58.371Z,4.83
2019-05-23T22:47:28.304Z,4.63
2019-05-23T22:49:57.585Z,4.23
2019-05-23T22:52:28.270Z,4.40
2019-05-23T22:54:57.518Z,4.33
2019-05-23T22:57:27.463Z,4.67
2019-05-23T22:59:56.866Z,4.70
2019-05-23T23:02:26.204Z,4.70
2019-05-23T23:04:55.403Z,4.67
2019-05-23T23:07:24.969Z,4.83
2019-05-23T23:09:54.167Z,4.73
2019-05-23T23:12:23.980Z,4.77
2019-05-23T23:14:53.278Z,4.63
2019-05-23T23:17:23.009Z,4.80
2019-05-23T23:19:53.045Z,4.80
2019-05-23T23:22:22.913Z,4.90
2019-05-23T23:24:52.276Z,5.00
2019-05-23T23:27:25.351Z,5.20
2019-05-23T23:29:54.349Z,5.30
2019-05-23T23:32:27.184Z,5.10
2019-05-23T23:34:56.871Z,4.73
2019-05-23T23:37:26.200Z,5.17
2019-05-23T23:39:55.864Z,5.00
2019-05-23T23:42:25.228Z,5.10
2019-05-23T23:44:53.726Z,5.37
2019-05-23T23:47:41.160Z,5.40
2019-05-23T23:50:28.509Z,5.17
2019-05-23T23:53:16.268Z,5.60
2019-05-23T23:56:04.252Z,5.77
2019-05-23T23:58:33.468Z,5.63
